Country
Station

 

Weather  for  Fassberg  -  Germany    Germany

  
9 °C (48 °F)
    
 
 

Current METAR for Fassberg is :

ETHS 191320Z 28012KT 9999 SCT027 BKN030 BKN048 09/02 Q1015 BLU BLU TEMPO WHT

 

This is a report for Fassberg - Germany.
 
The report was made 52 minutes ago, at 13:20 UTC .
The wind was blowing at a speed of 6.2 meters per second (13.8 miles per hour) from west (280°).
 
The temperature was 9 °C (48 °F), with a dew-point at 2 °C (36 °F).
The atmospheric pressure was 1015 hPa (29.97 inHg).
The relative humidity was 61.5%.
 
There were scattered clouds at a height of 823 meters (2700 feet), broken clouds at a height of 914 meters (3000 feet) and broken clouds at a height of 1463 meters (4800 feet).
 
The overall visibility was greater than 10 kilometers (6.2 miles).
 

 
 
 
 

Country :   A   B   C   D   E   F   G   H   I   J   K   L   M   N   O   P   Q   R   S   T   U   V   W   Y   Z

 

Site Info  |  Disclaimer  |  Credits  |  Privacy
Contact us  |  Add to favorites
© 2013-2019 METARs - All rights reserved